84C YSPT-YCFS
Flight info
| Callsign | 84C |
|---|---|
| Flight time | N/A |
| Altitude | 1000 |
| Route | ROTC STOT BBAY WGG |
| Aircraft | SR22/L-SGR/EB1 |
Departure
| Time | 2026-04-19 05:52 |
|---|---|
| Airport | Southport Airport (YSPT) |
Arrival
| Time | N/A |
|---|---|
| Airport | Coffs Harbour Airport (YCFS) |
| Time | Latitude | Longitude | Altitude | Speed | Heading |
|---|---|---|---|---|---|
| 2026-04-19 05:44 | -27.92547 | 153.37059 | 11 ft | 0 kts | 301° |
| 2026-04-19 05:48 | -27.92546 | 153.37056 | 11 ft | 4 kts | 293° |
| 2026-04-19 05:48 | -27.92564 | 153.37020 | 10 ft | 6 kts | 276° |
| 2026-04-19 05:48 | -27.92572 | 153.36998 | 10 ft | 2 kts | 306° |
| 2026-04-19 05:48 | -27.92562 | 153.36996 | 11 ft | 0 kts | 31° |
| 2026-04-19 05:50 | -27.92553 | 153.36998 | 11 ft | 2 kts | 342° |
| 2026-04-19 05:50 | -27.92528 | 153.36967 | 12 ft | 12 kts | 9° |
| 2026-04-19 05:51 | -27.92511 | 153.36974 | 13 ft | 0 kts | 26° |
| 2026-04-19 05:51 | -27.92425 | 153.37021 | 12 ft | 48 kts | 25° |
| 2026-04-19 05:51 | -27.91942 | 153.37269 | 149 ft | 87 kts | 29° |
| 2026-04-19 05:51 | -27.91344 | 153.37478 | 442 ft | 98 kts | 2° |
| 2026-04-19 05:52 | -27.90751 | 153.37038 | 730 ft | 111 kts | 301° |
| 2026-04-19 05:52 | -27.90402 | 153.36249 | 970 ft | 117 kts | 274° |
| 2026-04-19 05:52 | -27.90679 | 153.35377 | 1005 ft | 128 kts | 218° |
| 2026-04-19 05:52 | -27.91355 | 153.34682 | 1032 ft | 137 kts | 212° |
| 2026-04-19 05:53 | -27.92197 | 153.34344 | 1017 ft | 128 kts | 158° |
| 2026-04-19 05:53 | -27.92786 | 153.34978 | 937 ft | 107 kts | 138° |
| 2026-04-19 05:53 | -27.93084 | 153.35643 | 752 ft | 84 kts | 118° |
| 2026-04-19 05:53 | -27.93244 | 153.36281 | 433 ft | 82 kts | 87° |
| 2026-04-19 05:54 | -27.92883 | 153.36748 | 198 ft | 88 kts | 40° |
| 2026-04-19 05:54 | -27.92350 | 153.37058 | 15 ft | 79 kts | 35° |
| 2026-04-19 05:54 | -27.91975 | 153.37259 | 15 ft | 30 kts | 24° |
| 2026-04-19 05:54 | -27.91852 | 153.37322 | 14 ft | 18 kts | 33° |
| 2026-04-19 05:55 | -27.91901 | 153.37356 | 13 ft | 14 kts | 211° |
| 2026-04-19 05:55 | -27.92004 | 153.37302 | 13 ft | 18 kts | 209° |
| 2026-04-19 05:55 | -27.92116 | 153.37242 | 13 ft | 18 kts | 203° |
| 2026-04-19 05:55 | -27.92229 | 153.37182 | 15 ft | 19 kts | 205° |
| 2026-04-19 05:56 | -27.92349 | 153.37133 | 14 ft | 19 kts | 205° |
| 2026-04-19 05:56 | -27.92462 | 153.37040 | 12 ft | 20 kts | 205° |
| 2026-04-19 05:56 | -27.92471 | 153.36994 | 13 ft | 4 kts | 26° |
| 2026-04-19 05:56 | -27.92448 | 153.37008 | 13 ft | 23 kts | 26° |
| 2026-04-19 05:57 | -27.92045 | 153.37221 | 40 ft | 91 kts | 25° |
| 2026-04-19 05:57 | -27.91436 | 153.37497 | 332 ft | 102 kts | 14° |
| 2026-04-19 05:57 | -27.90725 | 153.37282 | 689 ft | 115 kts | 314° |
| 2026-04-19 05:57 | -27.90463 | 153.36464 | 867 ft | 112 kts | 263° |
| 2026-04-19 05:58 | -27.90791 | 153.35663 | 1017 ft | 122 kts | 221° |
| 2026-04-19 05:58 | -27.91419 | 153.34929 | 1002 ft | 140 kts | 216° |
| 2026-04-19 05:58 | -27.92151 | 153.34159 | 1002 ft | 146 kts | 216° |
| 2026-04-19 05:58 | -27.93053 | 153.33684 | 1013 ft | 144 kts | 177° |
| 2026-04-19 05:59 | -27.94040 | 153.33910 | 1007 ft | 148 kts | 161° |
| 2026-04-19 05:59 | -27.95055 | 153.34217 | 1008 ft | 152 kts | 161° |
| 2026-04-19 05:59 | -27.96095 | 153.34513 | 1013 ft | 156 kts | 163° |
| 2026-04-19 05:59 | -27.97144 | 153.34790 | 1011 ft | 154 kts | 162° |
| 2026-04-19 06:00 | -27.98189 | 153.35061 | 1007 ft | 153 kts | 161° |
| 2026-04-19 06:00 | -27.99216 | 153.35341 | 1012 ft | 152 kts | 162° |
| 2026-04-19 06:00 | -28.00255 | 153.35625 | 1012 ft | 154 kts | 160° |
| 2026-04-19 06:00 | -28.01275 | 153.35978 | 1008 ft | 151 kts | 156° |
| 2026-04-19 06:01 | -28.02273 | 153.36347 | 1009 ft | 150 kts | 158° |
| 2026-04-19 06:01 | -28.03271 | 153.36681 | 1011 ft | 148 kts | 159° |
| 2026-04-19 06:01 | -28.04269 | 153.36997 | 1004 ft | 148 kts | 160° |
| 2026-04-19 06:01 | -28.05255 | 153.37297 | 1002 ft | 145 kts | 162° |
| 2026-04-19 06:02 | -28.06239 | 153.37587 | 1005 ft | 147 kts | 162° |
| 2026-04-19 06:02 | -28.07214 | 153.37877 | 1007 ft | 144 kts | 160° |
| 2026-04-19 06:02 | -28.08183 | 153.37766 | 1005 ft | 149 kts | 211° |
| 2026-04-19 06:02 | -28.08630 | 153.36698 | 997 ft | 165 kts | 268° |
| 2026-04-19 06:03 | -28.08135 | 153.35555 | 994 ft | 167 kts | 322° |
| 2026-04-19 06:03 | -28.07075 | 153.35478 | 1024 ft | 156 kts | 30° |
| 2026-04-19 06:03 | -28.06354 | 153.36316 | 1042 ft | 146 kts | 72° |
| 2026-04-19 06:03 | -28.06544 | 153.37351 | 1026 ft | 137 kts | 130° |
| 2026-04-19 06:04 | -28.07241 | 153.38098 | 1032 ft | 139 kts | 135° |
| 2026-04-19 06:04 | -28.07996 | 153.38774 | 1009 ft | 139 kts | 154° |
| 2026-04-19 06:04 | -28.08831 | 153.39329 | 1034 ft | 142 kts | 145° |
| 2026-04-19 06:04 | -28.09712 | 153.39866 | 1026 ft | 143 kts | 153° |
| 2026-04-19 06:05 | -28.10587 | 153.40395 | 1033 ft | 143 kts | 149° |
| 2026-04-19 06:05 | -28.11482 | 153.40920 | 1035 ft | 147 kts | 152° |
| 2026-04-19 06:05 | -28.12374 | 153.41448 | 1039 ft | 145 kts | 150° |
| 2026-04-19 06:05 | -28.13283 | 153.41957 | 1046 ft | 148 kts | 152° |
| 2026-04-19 06:06 | -28.14213 | 153.42489 | 1038 ft | 149 kts | 150° |
| 2026-04-19 06:06 | -28.15137 | 153.43022 | 1045 ft | 150 kts | 151° |
| 2026-04-19 06:06 | -28.16081 | 153.43543 | 1038 ft | 149 kts | 150° |
| 2026-04-19 06:06 | -28.17001 | 153.44061 | 1047 ft | 147 kts | 148° |
| 2026-04-19 06:07 | -28.17901 | 153.44595 | 1037 ft | 145 kts | 151° |
| 2026-04-19 06:07 | -28.18786 | 153.45155 | 1043 ft | 147 kts | 147° |
| 2026-04-19 06:07 | -28.19666 | 153.45711 | 1048 ft | 142 kts | 148° |
| 2026-04-19 06:07 | -28.20531 | 153.46260 | 1025 ft | 143 kts | 147° |
| 2026-04-19 06:08 | -28.21400 | 153.46810 | 1041 ft | 143 kts | 151° |
| 2026-04-19 06:08 | -28.22297 | 153.47325 | 1042 ft | 146 kts | 152° |
| 2026-04-19 06:08 | -28.23198 | 153.47839 | 1040 ft | 143 kts | 151° |
| 2026-04-19 06:08 | -28.24076 | 153.48351 | 1028 ft | 139 kts | 151° |
| 2026-04-19 06:09 | -28.24915 | 153.48878 | 1043 ft | 141 kts | 152° |
| 2026-04-19 06:09 | -28.25800 | 153.49391 | 1040 ft | 142 kts | 152° |
| 2026-04-19 06:09 | -28.26684 | 153.49915 | 1039 ft | 144 kts | 153° |
| 2026-04-19 06:09 | -28.27645 | 153.50255 | 1043 ft | 145 kts | 165° |
| 2026-04-19 06:10 | -28.28629 | 153.50545 | 1043 ft | 147 kts | 163° |
| 2026-04-19 06:10 | -28.29619 | 153.50849 | 1038 ft | 147 kts | 162° |
| 2026-04-19 06:10 | -28.30274 | 153.51052 | 1045 ft | 147 kts | 163° |
| 2026-04-19 06:10 | -28.31264 | 153.51352 | 1051 ft | 146 kts | 162° |
| 2026-04-19 06:11 | -28.32223 | 153.51647 | 1171 ft | 141 kts | 163° |
| 2026-04-19 06:11 | -28.33161 | 153.51936 | 1296 ft | 139 kts | 163° |
| 2026-04-19 06:11 | -28.34098 | 153.52221 | 1414 ft | 139 kts | 163° |
| 2026-04-19 06:12 | -28.35979 | 153.52797 | 1534 ft | 147 kts | 163° |
| 2026-04-19 06:12 | -28.36980 | 153.53099 | 1538 ft | 149 kts | 163° |
| 2026-04-19 06:12 | -28.37969 | 153.53399 | 1544 ft | 148 kts | 164° |
| 2026-04-19 06:12 | -28.38966 | 153.53705 | 1544 ft | 148 kts | 164° |
| 2026-04-19 06:13 | -28.39969 | 153.54010 | 1535 ft | 149 kts | 165° |
| 2026-04-19 06:13 | -28.40958 | 153.54311 | 1536 ft | 147 kts | 165° |
| 2026-04-19 06:13 | -28.41944 | 153.54614 | 1607 ft | 144 kts | 164° |
| 2026-04-19 06:13 | -28.42881 | 153.54901 | 1781 ft | 136 kts | 163° |
| 2026-04-19 06:14 | -28.43791 | 153.55182 | 1947 ft | 135 kts | 164° |
| 2026-04-19 06:14 | -28.44686 | 153.55454 | 2109 ft | 131 kts | 163° |
| 2026-04-19 06:14 | -28.45555 | 153.55723 | 2278 ft | 128 kts | 163° |
| 2026-04-19 06:14 | -28.46417 | 153.55988 | 2450 ft | 129 kts | 164° |
| 2026-04-19 06:15 | -28.47274 | 153.56250 | 2616 ft | 128 kts | 163° |
| 2026-04-19 06:15 | -28.48137 | 153.56513 | 2784 ft | 128 kts | 166° |
| 2026-04-19 06:15 | -28.49002 | 153.56778 | 2959 ft | 129 kts | 166° |
| 2026-04-19 06:15 | -28.49877 | 153.57045 | 3131 ft | 130 kts | 168° |
| 2026-04-19 06:16 | -28.50751 | 153.57313 | 3311 ft | 132 kts | 167° |
| 2026-04-19 06:16 | -28.51634 | 153.57583 | 3481 ft | 130 kts | 168° |
| 2026-04-19 06:16 | -28.52521 | 153.57851 | 3534 ft | 135 kts | 168° |
| 2026-04-19 06:16 | -28.53449 | 153.58130 | 3539 ft | 136 kts | 169° |
| 2026-04-19 06:17 | -28.54351 | 153.58405 | 3539 ft | 140 kts | 168° |
| 2026-04-19 06:17 | -28.55294 | 153.58699 | 3544 ft | 144 kts | 169° |
| 2026-04-19 06:17 | -28.56261 | 153.58992 | 3543 ft | 144 kts | 168° |
| 2026-04-19 06:17 | -28.57234 | 153.59290 | 3544 ft | 144 kts | 168° |
| 2026-04-19 06:18 | -28.58199 | 153.59587 | 3546 ft | 136 kts | 169° |
| 2026-04-19 06:18 | -28.59114 | 153.59866 | 3538 ft | 137 kts | 168° |
| 2026-04-19 06:18 | -28.60045 | 153.60153 | 3533 ft | 139 kts | 169° |
| 2026-04-19 06:18 | -28.60989 | 153.60443 | 3536 ft | 141 kts | 169° |
| 2026-04-19 06:19 | -28.61942 | 153.60734 | 3536 ft | 142 kts | 168° |
| 2026-04-19 06:19 | -28.62898 | 153.61029 | 3536 ft | 143 kts | 168° |
| 2026-04-19 06:19 | -28.63846 | 153.61319 | 3538 ft | 142 kts | 168° |
| 2026-04-19 06:19 | -28.64817 | 153.61584 | 3537 ft | 145 kts | 176° |
| 2026-04-19 06:20 | -28.65793 | 153.61455 | 3636 ft | 138 kts | 197° |
| 2026-04-19 06:20 | -28.66702 | 153.61179 | 3768 ft | 132 kts | 194° |
| 2026-04-19 06:20 | -28.67590 | 153.60937 | 3882 ft | 130 kts | 195° |
| 2026-04-19 06:20 | -28.68462 | 153.60708 | 3995 ft | 127 kts | 194° |
| 2026-04-19 06:21 | -28.69308 | 153.60478 | 4106 ft | 126 kts | 195° |
| 2026-04-19 06:21 | -28.70153 | 153.60235 | 4231 ft | 123 kts | 196° |
| 2026-04-19 06:21 | -28.70978 | 153.60001 | 4355 ft | 121 kts | 196° |
| 2026-04-19 06:21 | -28.71798 | 153.59771 | 4473 ft | 121 kts | 195° |
| 2026-04-19 06:22 | -28.72624 | 153.59537 | 4535 ft | 125 kts | 196° |
| 2026-04-19 06:22 | -28.73490 | 153.59288 | 4543 ft | 132 kts | 195° |
| 2026-04-19 06:22 | -28.74395 | 153.59038 | 4548 ft | 135 kts | 195° |
| 2026-04-19 06:22 | -28.75300 | 153.58779 | 4546 ft | 134 kts | 195° |
| 2026-04-19 06:23 | -28.76200 | 153.58525 | 4549 ft | 132 kts | 195° |
| 2026-04-19 06:23 | -28.77091 | 153.58274 | 4548 ft | 132 kts | 195° |
| 2026-04-19 06:23 | -28.77985 | 153.58026 | 4550 ft | 132 kts | 195° |
| 2026-04-19 06:23 | -28.78867 | 153.57777 | 4551 ft | 133 kts | 195° |
| 2026-04-19 06:24 | -28.79770 | 153.57524 | 4547 ft | 133 kts | 195° |
| 2026-04-19 06:24 | -28.80677 | 153.57268 | 4545 ft | 135 kts | 195° |
| 2026-04-19 06:24 | -28.81581 | 153.57015 | 4541 ft | 133 kts | 195° |
| 2026-04-19 06:24 | -28.82482 | 153.56762 | 4538 ft | 133 kts | 195° |